sensor_id;sensor_type;location;lat;lon;timestamp;pressure;altitude;pressure_sealevel;temperature;humidity
78317;BME280;67572;50.930;18.276;2024-03-06T00:00:04;99303.13;;;1.72;82.18
78317;BME280;67572;50.930;18.276;2024-03-06T00:03:09;99303.03;;;2.03;80.23
78317;BME280;67572;50.930;18.276;2024-03-06T00:06:12;99305.56;;;1.78;81.04
78317;BME280;67572;50.930;18.276;2024-03-06T00:09:16;99304.59;;;1.82;81.16
78317;BME280;67572;50.930;18.276;2024-03-06T00:12:20;99301.56;;;1.94;80.60
78317;BME280;67572;50.930;18.276;2024-03-06T00:15:25;99302.72;;;1.85;81.36
78317;BME280;67572;50.930;18.276;2024-03-06T00:18:30;99311.72;;;1.77;81.95
78317;BME280;67572;50.930;18.276;2024-03-06T00:21:33;99310.72;;;2.09;82.15
78317;BME280;67572;50.930;18.276;2024-03-06T00:24:38;99317.31;;;1.64;82.26
78317;BME280;67572;50.930;18.276;2024-03-06T00:27:41;99319.03;;;1.65;81.58
78317;BME280;67572;50.930;18.276;2024-03-06T00:30:46;99318.50;;;1.54;80.75
78317;BME280;67572;50.930;18.276;2024-03-06T00:33:50;99327.91;;;1.91;81.08
78317;BME280;67572;50.930;18.276;2024-03-06T00:36:54;99325.88;;;1.71;81.10
78317;BME280;67572;50.930;18.276;2024-03-06T00:39:57;99329.97;;;1.80;81.53
78317;BME280;67572;50.930;18.276;2024-03-06T00:43:01;99322.88;;;1.83;80.88
78317;BME280;67572;50.930;18.276;2024-03-06T00:46:06;99326.53;;;2.07;80.03
78317;BME280;67572;50.930;18.276;2024-03-06T00:49:09;99332.41;;;1.86;80.01
78317;BME280;67572;50.930;18.276;2024-03-06T00:52:12;99331.41;;;2.18;79.80
78317;BME280;67572;50.930;18.276;2024-03-06T00:55:16;99340.47;;;1.80;80.81
78317;BME280;67572;50.930;18.276;2024-03-06T00:58:19;99332.41;;;1.86;82.33
78317;BME280;67572;50.930;18.276;2024-03-06T01:01:24;99339.66;;;1.78;83.75
78317;BME280;67572;50.930;18.276;2024-03-06T01:04:29;99346.59;;;2.36;83.97
78317;BME280;67572;50.930;18.276;2024-03-06T01:07:33;99344.47;;;2.47;83.61
78317;BME280;67572;50.930;18.276;2024-03-06T01:10:37;99340.41;;;2.65;84.62
78317;BME280;67572;50.930;18.276;2024-03-06T01:13:41;99343.88;;;2.66;82.46
78317;BME280;67572;50.930;18.276;2024-03-06T01:16:46;99345.00;;;2.59;83.19
78317;BME280;67572;50.930;18.276;2024-03-06T01:19:49;99342.44;;;2.56;83.82
78317;BME280;67572;50.930;18.276;2024-03-06T01:22:52;99337.47;;;2.74;84.35
78317;BME280;67572;50.930;18.276;2024-03-06T01:25:56;99339.06;;;2.78;83.43
78317;BME280;67572;50.930;18.276;2024-03-06T01:28:59;99331.25;;;2.77;82.97
78317;BME280;67572;50.930;18.276;2024-03-06T01:32:04;99338.81;;;2.86;83.16
78317;BME280;67572;50.930;18.276;2024-03-06T01:35:08;99343.13;;;2.62;83.32
78317;BME280;67572;50.930;18.276;2024-03-06T01:38:12;99343.56;;;2.48;83.34
78317;BME280;67572;50.930;18.276;2024-03-06T01:41:17;99335.59;;;2.52;82.18
78317;BME280;67572;50.930;18.276;2024-03-06T01:44:20;99339.16;;;2.22;81.86
78317;BME280;67572;50.930;18.276;2024-03-06T01:47:25;99346.41;;;2.42;81.27
78317;BME280;67572;50.930;18.276;2024-03-06T01:50:28;99343.72;;;2.44;82.30
78317;BME280;67572;50.930;18.276;2024-03-06T01:53:33;99351.06;;;2.33;81.09
78317;BME280;67572;50.930;18.276;2024-03-06T01:56:39;99345.31;;;2.21;81.18
78317;BME280;67572;50.930;18.276;2024-03-06T01:59:48;99346.81;;;2.01;80.55
78317;BME280;67572;50.930;18.276;2024-03-06T02:02:53;99341.47;;;2.04;79.37
78317;BME280;67572;50.930;18.276;2024-03-06T02:05:57;99341.53;;;1.74;79.83
78317;BME280;67572;50.930;18.276;2024-03-06T02:09:01;99343.41;;;1.69;79.58
78317;BME280;67572;50.930;18.276;2024-03-06T02:12:05;99346.47;;;1.54;79.74
78317;BME280;67572;50.930;18.276;2024-03-06T02:15:10;99347.28;;;1.25;78.98
78317;BME280;67572;50.930;18.276;2024-03-06T02:18:16;99352.16;;;1.38;79.51
78317;BME280;67572;50.930;18.276;2024-03-06T02:21:21;99354.84;;;1.35;79.08
78317;BME280;67572;50.930;18.276;2024-03-06T02:24:25;99355.38;;;1.48;79.09
78317;BME280;67572;50.930;18.276;2024-03-06T02:27:28;99344.81;;;1.51;78.05
78317;BME280;67572;50.930;18.276;2024-03-06T02:30:31;99344.78;;;1.20;78.12
78317;BME280;67572;50.930;18.276;2024-03-06T02:33:39;99344.66;;;1.25;78.02
78317;BME280;67572;50.930;18.276;2024-03-06T02:36:44;99352.63;;;1.22;77.42
78317;BME280;67572;50.930;18.276;2024-03-06T02:39:48;99350.50;;;1.34;77.78
78317;BME280;67572;50.930;18.276;2024-03-06T02:42:51;99344.41;;;1.34;77.14
78317;BME280;67572;50.930;18.276;2024-03-06T02:45:55;99352.38;;;1.31;77.53
78317;BME280;67572;50.930;18.276;2024-03-06T02:48:58;99346.22;;;1.32;76.88
78317;BME280;67572;50.930;18.276;2024-03-06T02:52:03;99349.16;;;1.21;76.86
78317;BME280;67572;50.930;18.276;2024-03-06T02:55:07;99356.72;;;0.98;77.58
78317;BME280;67572;50.930;18.276;2024-03-06T02:58:10;99355.06;;;0.95;77.98
78317;BME280;67572;50.930;18.276;2024-03-06T03:01:14;99361.50;;;0.82;79.13
78317;BME280;67572;50.930;18.276;2024-03-06T03:04:18;99354.84;;;1.03;81.20
78317;BME280;67572;50.930;18.276;2024-03-06T03:07:23;99358.94;;;1.13;82.11
78317;BME280;67572;50.930;18.276;2024-03-06T03:10:26;99354.41;;;1.20;83.54
78317;BME280;67572;50.930;18.276;2024-03-06T03:13:29;99362.88;;;1.29;84.18
78317;BME280;67572;50.930;18.276;2024-03-06T03:16:33;99366.88;;;1.43;83.46
78317;BME280;67572;50.930;18.276;2024-03-06T03:19:37;99363.28;;;1.47;83.10
78317;BME280;67572;50.930;18.276;2024-03-06T03:22:44;99359.31;;;1.32;82.60
78317;BME280;67572;50.930;18.276;2024-03-06T03:25:47;99356.81;;;1.58;81.92
78317;BME280;67572;50.930;18.276;2024-03-06T03:28:51;99354.06;;;1.63;81.67
78317;BME280;67572;50.930;18.276;2024-03-06T03:31:54;99358.97;;;1.75;81.67
78317;BME280;67572;50.930;18.276;2024-03-06T03:34:58;99368.22;;;1.87;81.39
78317;BME280;67572;50.930;18.276;2024-03-06T03:38:03;99362.50;;;1.73;81.43
78317;BME280;67572;50.930;18.276;2024-03-06T03:41:07;99362.34;;;1.79;81.54
78317;BME280;67572;50.930;18.276;2024-03-06T03:44:11;99362.28;;;1.80;80.77
78317;BME280;67572;50.930;18.276;2024-03-06T03:47:15;99362.84;;;1.62;80.66
78317;BME280;67572;50.930;18.276;2024-03-06T03:50:19;99364.22;;;1.74;80.29
78317;BME280;67572;50.930;18.276;2024-03-06T03:53:23;99364.09;;;1.49;80.07
78317;BME280;67572;50.930;18.276;2024-03-06T03:56:27;99363.22;;;1.48;79.21
78317;BME280;67572;50.930;18.276;2024-03-06T03:59:33;99365.69;;;1.54;79.38
78317;BME280;67572;50.930;18.276;2024-03-06T04:02:37;99363.59;;;1.34;79.30
78317;BME280;67572;50.930;18.276;2024-03-06T04:05:40;99372.91;;;1.46;79.93
78317;BME280;67572;50.930;18.276;2024-03-06T04:08:45;99368.78;;;1.37;79.14
78317;BME280;67572;50.930;18.276;2024-03-06T04:11:48;99376.16;;;1.23;79.59
78317;BME280;67572;50.930;18.276;2024-03-06T04:14:52;99373.28;;;1.32;78.43
78317;BME280;67572;50.930;18.276;2024-03-06T04:17:55;99378.28;;;1.09;79.16
78317;BME280;67572;50.930;18.276;2024-03-06T04:20:59;99375.69;;;1.07;79.42
78317;BME280;67572;50.930;18.276;2024-03-06T04:24:04;99378.97;;;1.16;78.98
78317;BME280;67572;50.930;18.276;2024-03-06T04:27:08;99375.66;;;1.09;79.12
78317;BME280;67572;50.930;18.276;2024-03-06T04:30:13;99383.19;;;0.87;79.29
78317;BME280;67572;50.930;18.276;2024-03-06T04:33:16;99390.91;;;0.93;79.71
78317;BME280;67572;50.930;18.276;2024-03-06T04:36:19;99399.56;;;0.95;78.47
78317;BME280;67572;50.930;18.276;2024-03-06T04:39:24;99400.00;;;0.78;77.89
78317;BME280;67572;50.930;18.276;2024-03-06T04:42:28;99395.66;;;0.77;78.33
78317;BME280;67572;50.930;18.276;2024-03-06T04:45:31;99398.66;;;0.62;78.85
78317;BME280;67572;50.930;18.276;2024-03-06T04:48:35;99398.03;;;0.51;78.65
78317;BME280;67572;50.930;18.276;2024-03-06T04:51:38;99399.03;;;0.47;78.71
78317;BME280;67572;50.930;18.276;2024-03-06T04:54:43;99399.69;;;0.55;78.28
78317;BME280;67572;50.930;18.276;2024-03-06T04:57:46;99401.47;;;0.54;78.62
78317;BME280;67572;50.930;18.276;2024-03-06T05:00:50;99410.22;;;0.52;78.30
78317;BME280;67572;50.930;18.276;2024-03-06T05:03:53;99408.75;;;0.40;78.50
78317;BME280;67572;50.930;18.276;2024-03-06T05:07:14;99402.56;;;0.44;78.26
78317;BME280;67572;50.930;18.276;2024-03-06T05:10:36;99401.00;;;0.36;78.38
78317;BME280;67572;50.930;18.276;2024-03-06T05:13:58;99409.03;;;0.28;78.40
78317;BME280;67572;50.930;18.276;2024-03-06T05:17:19;99405.13;;;0.09;78.97
78317;BME280;67572;50.930;18.276;2024-03-06T05:20:40;99409.41;;;0.11;78.75
78317;BME280;67572;50.930;18.276;2024-03-06T05:24:00;99413.63;;;0.18;78.89
78317;BME280;67572;50.930;18.276;2024-03-06T05:27:23;99413.09;;;0.03;79.50
78317;BME280;67572;50.930;18.276;2024-03-06T05:30:43;99415.34;;;0.19;79.98
78317;BME280;67572;50.930;18.276;2024-03-06T05:34:10;99417.53;;;0.38;79.63
78317;BME280;67572;50.930;18.276;2024-03-06T05:37:31;99417.44;;;0.42;79.00
78317;BME280;67572;50.930;18.276;2024-03-06T05:40:52;99418.38;;;0.40;78.97
78317;BME280;67572;50.930;18.276;2024-03-06T05:44:14;99417.88;;;0.61;78.52
78317;BME280;67572;50.930;18.276;2024-03-06T05:47:35;99422.03;;;0.70;78.01
78317;BME280;67572;50.930;18.276;2024-03-06T05:50:56;99424.59;;;0.71;78.00
78317;BME280;67572;50.930;18.276;2024-03-06T05:54:16;99435.47;;;0.90;77.79
78317;BME280;67572;50.930;18.276;2024-03-06T05:57:39;99434.41;;;0.99;77.48
78317;BME280;67572;50.930;18.276;2024-03-06T06:01:06;99439.03;;;0.88;77.95
78317;BME280;67572;50.930;18.276;2024-03-06T06:04:10;99449.50;;;0.50;79.44
78317;BME280;67572;50.930;18.276;2024-03-06T06:07:15;99453.06;;;0.48;80.31
78317;BME280;67572;50.930;18.276;2024-03-06T06:10:18;99453.75;;;0.17;81.53
78317;BME280;67572;50.930;18.276;2024-03-06T06:13:23;99467.63;;;0.19;82.49
78317;BME280;67572;50.930;18.276;2024-03-06T06:16:34;99461.16;;;0.36;83.44
78317;BME280;67572;50.930;18.276;2024-03-06T06:19:38;99469.66;;;0.45;83.38
78317;BME280;67572;50.930;18.276;2024-03-06T06:22:41;99465.66;;;0.69;83.05
78317;BME280;67572;50.930;18.276;2024-03-06T06:25:45;99470.84;;;0.71;83.92
78317;BME280;67572;50.930;18.276;2024-03-06T06:28:51;99472.78;;;1.00;85.91
78317;BME280;67572;50.930;18.276;2024-03-06T06:31:56;99472.19;;;0.87;86.44
78317;BME280;67572;50.930;18.276;2024-03-06T06:34:59;99474.94;;;1.18;86.76
78317;BME280;67572;50.930;18.276;2024-03-06T06:38:03;99471.91;;;1.67;86.10
78317;BME280;67572;50.930;18.276;2024-03-06T06:41:07;99483.59;;;1.20;86.41
78317;BME280;67572;50.930;18.276;2024-03-06T06:44:11;99481.41;;;1.03;87.41
78317;BME280;67572;50.930;18.276;2024-03-06T06:47:16;99485.19;;;0.92;88.98
78317;BME280;67572;50.930;18.276;2024-03-06T06:50:20;99492.38;;;0.82;90.25
78317;BME280;67572;50.930;18.276;2024-03-06T06:53:28;99497.78;;;0.74;91.24
78317;BME280;67572;50.930;18.276;2024-03-06T06:56:31;99500.19;;;0.85;91.47
78317;BME280;67572;50.930;18.276;2024-03-06T06:59:35;99490.16;;;1.02;91.78
78317;BME280;67572;50.930;18.276;2024-03-06T07:02:40;99490.34;;;1.30;91.08
78317;BME280;67572;50.930;18.276;2024-03-06T07:05:44;99494.69;;;1.31;89.87
78317;BME280;67572;50.930;18.276;2024-03-06T07:08:47;99485.91;;;1.66;89.65
78317;BME280;67572;50.930;18.276;2024-03-06T07:11:51;99483.31;;;1.65;89.10
78317;BME280;67572;50.930;18.276;2024-03-06T07:14:54;99480.34;;;1.77;88.71
78317;BME280;67572;50.930;18.276;2024-03-06T07:18:00;99476.09;;;2.34;87.88
78317;BME280;67572;50.930;18.276;2024-03-06T07:21:03;99479.59;;;2.34;87.32
78317;BME280;67572;50.930;18.276;2024-03-06T07:24:07;99483.75;;;2.41;86.01
78317;BME280;67572;50.930;18.276;2024-03-06T07:27:11;99480.31;;;1.79;86.55
78317;BME280;67572;50.930;18.276;2024-03-06T07:30:17;99486.19;;;1.87;87.63
78317;BME280;67572;50.930;18.276;2024-03-06T07:33:22;99493.34;;;2.13;88.49
78317;BME280;67572;50.930;18.276;2024-03-06T07:36:25;99490.81;;;2.39;87.72
78317;BME280;67572;50.930;18.276;2024-03-06T07:39:29;99488.47;;;2.60;87.12
78317;BME280;67572;50.930;18.276;2024-03-06T07:42:33;99492.06;;;2.56;87.49
78317;BME280;67572;50.930;18.276;2024-03-06T07:45:37;99493.88;;;2.54;87.88
78317;BME280;67572;50.930;18.276;2024-03-06T07:48:43;99498.19;;;2.27;88.40
78317;BME280;67572;50.930;18.276;2024-03-06T07:51:47;99506.66;;;2.66;88.04
78317;BME280;67572;50.930;18.276;2024-03-06T07:54:50;99500.53;;;2.65;88.42
78317;BME280;67572;50.930;18.276;2024-03-06T07:57:54;99496.88;;;2.41;88.79
78317;BME280;67572;50.930;18.276;2024-03-06T08:00:57;99510.56;;;2.81;89.52
78317;BME280;67572;50.930;18.276;2024-03-06T08:04:04;99514.25;;;3.01;88.58
78317;BME280;67572;50.930;18.276;2024-03-06T08:07:09;99519.25;;;3.37;88.75
78317;BME280;67572;50.930;18.276;2024-03-06T08:10:13;99512.66;;;3.24;87.16
78317;BME280;67572;50.930;18.276;2024-03-06T08:13:16;99518.66;;;3.54;86.97
78317;BME280;67572;50.930;18.276;2024-03-06T08:16:21;99521.34;;;3.79;87.00
78317;BME280;67572;50.930;18.276;2024-03-06T08:19:26;99523.97;;;3.79;86.99
78317;BME280;67572;50.930;18.276;2024-03-06T08:22:29;99520.34;;;3.56;86.84
78317;BME280;67572;50.930;18.276;2024-03-06T08:25:33;99528.69;;;3.43;86.41
78317;BME280;67572;50.930;18.276;2024-03-06T08:28:36;99517.66;;;3.33;86.74
78317;BME280;67572;50.930;18.276;2024-03-06T08:31:40;99514.03;;;3.09;88.22
78317;BME280;67572;50.930;18.276;2024-03-06T08:34:45;99525.31;;;3.13;88.40
78317;BME280;67572;50.930;18.276;2024-03-06T08:37:49;99525.47;;;2.80;88.89
78317;BME280;67572;50.930;18.276;2024-03-06T08:40:52;99526.75;;;2.95;89.63
78317;BME280;67572;50.930;18.276;2024-03-06T08:43:56;99521.81;;;3.12;90.56
78317;BME280;67572;50.930;18.276;2024-03-06T08:46:59;99527.53;;;3.25;89.84
78317;BME280;67572;50.930;18.276;2024-03-06T08:50:05;99532.09;;;3.20;89.50
78317;BME280;67572;50.930;18.276;2024-03-06T08:53:09;99529.84;;;3.08;89.36
78317;BME280;67572;50.930;18.276;2024-03-06T08:56:15;99527.75;;;3.17;90.38
78317;BME280;67572;50.930;18.276;2024-03-06T08:59:19;99527.38;;;3.29;90.61
78317;BME280;67572;50.930;18.276;2024-03-06T09:02:22;99530.34;;;3.45;89.80
78317;BME280;67572;50.930;18.276;2024-03-06T09:05:27;99525.13;;;3.19;90.71
78317;BME280;67572;50.930;18.276;2024-03-06T09:08:31;99529.41;;;3.48;90.34
78317;BME280;67572;50.930;18.276;2024-03-06T09:11:34;99520.13;;;3.10;91.07
78317;BME280;67572;50.930;18.276;2024-03-06T09:14:38;99528.31;;;3.00;91.67
78317;BME280;67572;50.930;18.276;2024-03-06T09:17:43;99522.44;;;3.20;92.33
78317;BME280;67572;50.930;18.276;2024-03-06T09:20:50;99524.78;;;3.01;91.32
78317;BME280;67572;50.930;18.276;2024-03-06T09:23:53;99526.16;;;3.13;91.78
78317;BME280;67572;50.930;18.276;2024-03-06T09:26:56;99524.09;;;3.23;92.51
78317;BME280;67572;50.930;18.276;2024-03-06T09:30:01;99536.00;;;3.34;91.93
78317;BME280;67572;50.930;18.276;2024-03-06T09:33:15;99538.25;;;3.45;91.50
78317;BME280;67572;50.930;18.276;2024-03-06T09:36:21;99531.91;;;3.26;91.09
78317;BME280;67572;50.930;18.276;2024-03-06T09:39:24;99540.56;;;3.54;90.88
78317;BME280;67572;50.930;18.276;2024-03-06T09:42:28;99540.41;;;3.06;91.44
78317;BME280;67572;50.930;18.276;2024-03-06T09:45:32;99554.38;;;3.34;91.76
78317;BME280;67572;50.930;18.276;2024-03-06T09:48:35;99546.66;;;3.56;90.18
78317;BME280;67572;50.930;18.276;2024-03-06T09:51:43;99537.53;;;3.92;90.12
78317;BME280;67572;50.930;18.276;2024-03-06T09:54:48;99542.84;;;3.65;88.99
78317;BME280;67572;50.930;18.276;2024-03-06T09:57:52;99548.44;;;4.06;89.09
78317;BME280;67572;50.930;18.276;2024-03-06T10:00:57;99546.47;;;3.61;89.60
78317;BME280;67572;50.930;18.276;2024-03-06T10:04:19;99556.69;;;3.70;89.66
78317;BME280;67572;50.930;18.276;2024-03-06T10:07:24;99551.53;;;3.67;89.67
78317;BME280;67572;50.930;18.276;2024-03-06T10:10:29;99555.34;;;3.58;90.37
78317;BME280;67572;50.930;18.276;2024-03-06T10:13:33;99557.94;;;3.85;90.88
78317;BME280;67572;50.930;18.276;2024-03-06T10:16:36;99549.47;;;3.50;90.56
78317;BME280;67572;50.930;18.276;2024-03-06T10:19:40;99553.91;;;3.75;90.94
78317;BME280;67572;50.930;18.276;2024-03-06T10:22:50;99555.78;;;3.71;91.14
78317;BME280;67572;50.930;18.276;2024-03-06T10:25:59;99554.56;;;3.81;91.33
78317;BME280;67572;50.930;18.276;2024-03-06T10:29:03;99549.41;;;4.03;90.46
78317;BME280;67572;50.930;18.276;2024-03-06T10:32:08;99548.09;;;4.40;89.69
78317;BME280;67572;50.930;18.276;2024-03-06T10:35:20;99555.28;;;4.35;89.23
78317;BME280;67572;50.930;18.276;2024-03-06T10:38:31;99555.25;;;4.11;89.43
78317;BME280;67572;50.930;18.276;2024-03-06T10:41:40;99550.00;;;3.86;90.35
78317;BME280;67572;50.930;18.276;2024-03-06T10:44:51;99540.59;;;3.79;91.03
78317;BME280;67572;50.930;18.276;2024-03-06T10:47:56;99547.19;;;3.66;91.22
78317;BME280;67572;50.930;18.276;2024-03-06T10:51:05;99547.31;;;3.88;91.52
78317;BME280;67572;50.930;18.276;2024-03-06T10:54:13;99554.66;;;4.03;90.35
78317;BME280;67572;50.930;18.276;2024-03-06T10:57:18;99547.16;;;4.41;89.46
78317;BME280;67572;50.930;18.276;2024-03-06T11:00:23;99549.88;;;4.14;89.42
78317;BME280;67572;50.930;18.276;2024-03-06T11:03:30;99547.47;;;4.08;89.34
78317;BME280;67572;50.930;18.276;2024-03-06T11:06:34;99545.59;;;3.87;89.43
78317;BME280;67572;50.930;18.276;2024-03-06T11:09:39;99543.97;;;4.08;90.74
78317;BME280;67572;50.930;18.276;2024-03-06T11:12:43;99544.06;;;4.53;89.71
78317;BME280;67572;50.930;18.276;2024-03-06T11:15:52;99539.13;;;4.44;89.83
78317;BME280;67572;50.930;18.276;2024-03-06T11:19:07;99540.63;;;4.51;90.03
78317;BME280;67572;50.930;18.276;2024-03-06T11:22:10;99533.44;;;4.33;90.88
78317;BME280;67572;50.930;18.276;2024-03-06T11:28:52;99535.53;;;3.98;92.38
78317;BME280;67572;50.930;18.276;2024-03-06T11:32:06;99535.28;;;4.06;94.11
78317;BME280;67572;50.930;18.276;2024-03-06T11:35:12;99537.31;;;3.98;95.34
78317;BME280;67572;50.930;18.276;2024-03-06T11:38:16;99531.72;;;4.07;95.61
78317;BME280;67572;50.930;18.276;2024-03-06T11:41:21;99533.56;;;4.05;95.63
78317;BME280;67572;50.930;18.276;2024-03-06T11:44:29;99532.22;;;4.18;95.95
78317;BME280;67572;50.930;18.276;2024-03-06T11:47:42;99531.34;;;3.93;96.23
78317;BME280;67572;50.930;18.276;2024-03-06T11:50:56;99528.03;;;4.12;96.65
78317;BME280;67572;50.930;18.276;2024-03-06T11:54:05;99532.34;;;3.90;96.83
78317;BME280;67572;50.930;18.276;2024-03-06T11:57:08;99529.94;;;4.07;97.99
78317;BME280;67572;50.930;18.276;2024-03-06T12:00:16;99523.88;;;4.05;98.44
78317;BME280;67572;50.930;18.276;2024-03-06T12:03:20;99525.25;;;4.17;98.50
78317;BME280;67572;50.930;18.276;2024-03-06T12:06:26;99531.56;;;4.11;98.88
78317;BME280;67572;50.930;18.276;2024-03-06T12:09:33;99529.94;;;4.56;98.03
78317;BME280;67572;50.930;18.276;2024-03-06T12:12:42;99533.22;;;4.14;98.72
78317;BME280;67572;50.930;18.276;2024-03-06T12:15:48;99533.81;;;4.45;98.87
78317;BME280;67572;50.930;18.276;2024-03-06T12:18:54;99535.94;;;3.87;99.33
78317;BME280;67572;50.930;18.276;2024-03-06T12:21:59;99536.28;;;4.27;99.88
78317;BME280;67572;50.930;18.276;2024-03-06T12:25:06;99532.00;;;4.24;99.77
78317;BME280;67572;50.930;18.276;2024-03-06T12:28:09;99533.88;;;4.21;99.38
78317;BME280;67572;50.930;18.276;2024-03-06T12:31:14;99532.56;;;4.32;98.67
78317;BME280;67572;50.930;18.276;2024-03-06T12:34:18;99533.72;;;4.25;98.84
78317;BME280;67572;50.930;18.276;2024-03-06T12:37:28;99532.50;;;4.34;99.08
78317;BME280;67572;50.930;18.276;2024-03-06T12:40:37;99531.53;;;4.36;99.06
78317;BME280;67572;50.930;18.276;2024-03-06T12:43:41;99534.44;;;4.29;99.23
78317;BME280;67572;50.930;18.276;2024-03-06T12:46:46;99530.28;;;4.47;99.49
78317;BME280;67572;50.930;18.276;2024-03-06T12:49:50;99524.78;;;4.29;99.26
78317;BME280;67572;50.930;18.276;2024-03-06T12:52:54;99527.19;;;4.35;100.00
78317;BME280;67572;50.930;18.276;2024-03-06T12:55:57;99525.75;;;4.50;99.92
78317;BME280;67572;50.930;18.276;2024-03-06T12:59:01;99521.03;;;4.82;99.41
78317;BME280;67572;50.930;18.276;2024-03-06T13:02:06;99522.09;;;4.54;99.35
78317;BME280;67572;50.930;18.276;2024-03-06T13:05:09;99519.84;;;4.67;98.86
78317;BME280;67572;50.930;18.276;2024-03-06T13:08:12;99521.97;;;4.34;99.14
78317;BME280;67572;50.930;18.276;2024-03-06T13:11:17;99524.19;;;4.68;99.33
78317;BME280;67572;50.930;18.276;2024-03-06T13:14:21;99530.59;;;4.61;99.21
78317;BME280;67572;50.930;18.276;2024-03-06T13:17:26;99528.50;;;4.70;98.60
78317;BME280;67572;50.930;18.276;2024-03-06T13:20:31;99526.19;;;4.85;98.71
78317;BME280;67572;50.930;18.276;2024-03-06T13:23:34;99529.44;;;4.91;98.73
78317;BME280;67572;50.930;18.276;2024-03-06T13:26:38;99534.09;;;4.85;98.39
78317;BME280;67572;50.930;18.276;2024-03-06T13:29:42;99529.56;;;5.10;97.94
78317;BME280;67572;50.930;18.276;2024-03-06T13:32:47;99520.72;;;4.21;98.42
78317;BME280;67572;50.930;18.276;2024-03-06T13:35:51;99523.91;;;4.52;100.00
78317;BME280;67572;50.930;18.276;2024-03-06T13:38:56;99528.38;;;4.50;100.00
78317;BME280;67572;50.930;18.276;2024-03-06T13:42:00;99531.88;;;4.27;100.00
78317;BME280;67572;50.930;18.276;2024-03-06T13:45:04;99535.88;;;4.37;100.00
78317;BME280;67572;50.930;18.276;2024-03-06T13:48:14;99537.19;;;4.49;100.00
78317;BME280;67572;50.930;18.276;2024-03-06T13:51:18;99536.16;;;4.30;100.00
78317;BME280;67572;50.930;18.276;2024-03-06T13:54:22;99537.78;;;4.57;100.00
78317;BME280;67572;50.930;18.276;2024-03-06T13:57:25;99529.22;;;4.74;100.00
78317;BME280;67572;50.930;18.276;2024-03-06T14:00:29;99536.44;;;4.92;100.00
78317;BME280;67572;50.930;18.276;2024-03-06T14:03:33;99528.94;;;5.04;98.97
78317;BME280;67572;50.930;18.276;2024-03-06T14:06:39;99532.56;;;5.01;99.34
78317;BME280;67572;50.930;18.276;2024-03-06T14:09:43;99531.06;;;4.72;99.99
78317;BME280;67572;50.930;18.276;2024-03-06T14:12:46;99534.00;;;4.64;99.64
78317;BME280;67572;50.930;18.276;2024-03-06T14:15:53;99533.84;;;4.91;100.00
78317;BME280;67572;50.930;18.276;2024-03-06T14:18:58;99536.59;;;5.32;99.43
78317;BME280;67572;50.930;18.276;2024-03-06T14:22:02;99540.22;;;4.85;98.94
78317;BME280;67572;50.930;18.276;2024-03-06T14:25:09;99541.19;;;4.83;98.65
78317;BME280;67572;50.930;18.276;2024-03-06T14:28:13;99542.19;;;5.02;98.10
78317;BME280;67572;50.930;18.276;2024-03-06T14:31:16;99536.38;;;5.16;98.07
78317;BME280;67572;50.930;18.276;2024-03-06T14:34:21;99540.84;;;4.92;98.45
78317;BME280;67572;50.930;18.276;2024-03-06T14:37:25;99538.53;;;4.83;99.39
78317;BME280;67572;50.930;18.276;2024-03-06T14:40:30;99546.47;;;5.05;99.26
78317;BME280;67572;50.930;18.276;2024-03-06T14:43:34;99538.47;;;5.08;97.88
78317;BME280;67572;50.930;18.276;2024-03-06T14:46:40;99539.38;;;5.07;98.98
78317;BME280;67572;50.930;18.276;2024-03-06T14:49:45;99536.72;;;4.85;100.00
78317;BME280;67572;50.930;18.276;2024-03-06T14:52:49;99543.09;;;4.79;100.00
78317;BME280;67572;50.930;18.276;2024-03-06T14:55:53;99543.81;;;4.83;99.74
78317;BME280;67572;50.930;18.276;2024-03-06T14:58:57;99545.56;;;4.84;100.00
78317;BME280;67572;50.930;18.276;2024-03-06T15:02:01;99541.66;;;4.70;100.00
78317;BME280;67572;50.930;18.276;2024-03-06T15:05:07;99545.31;;;4.66;100.00
78317;BME280;67572;50.930;18.276;2024-03-06T15:08:14;99544.56;;;4.86;100.00
78317;BME280;67572;50.930;18.276;2024-03-06T15:11:19;99545.72;;;4.79;100.00
78317;BME280;67572;50.930;18.276;2024-03-06T15:14:24;99551.25;;;4.95;100.00
78317;BME280;67572;50.930;18.276;2024-03-06T15:17:29;99541.41;;;5.00;100.00
78317;BME280;67572;50.930;18.276;2024-03-06T15:20:35;99545.97;;;5.39;100.00
78317;BME280;67572;50.930;18.276;2024-03-06T15:23:39;99555.13;;;5.08;99.37
78317;BME280;67572;50.930;18.276;2024-03-06T15:26:42;99554.59;;;4.98;100.00
78317;BME280;67572;50.930;18.276;2024-03-06T15:29:48;99550.50;;;5.13;100.00
78317;BME280;67572;50.930;18.276;2024-03-06T15:32:52;99559.72;;;5.03;100.00
78317;BME280;67572;50.930;18.276;2024-03-06T15:35:57;99553.16;;;5.13;100.00
78317;BME280;67572;50.930;18.276;2024-03-06T15:39:02;99553.75;;;4.98;100.00
78317;BME280;67572;50.930;18.276;2024-03-06T15:42:08;99556.78;;;5.11;100.00
78317;BME280;67572;50.930;18.276;2024-03-06T15:45:12;99549.47;;;5.39;100.00
78317;BME280;67572;50.930;18.276;2024-03-06T15:48:15;99548.16;;;5.49;99.74
78317;BME280;67572;50.930;18.276;2024-03-06T15:51:20;99548.63;;;5.17;99.25
78317;BME280;67572;50.930;18.276;2024-03-06T15:54:23;99549.16;;;5.03;100.00
78317;BME280;67572;50.930;18.276;2024-03-06T15:57:27;99554.69;;;5.19;100.00
78317;BME280;67572;50.930;18.276;2024-03-06T16:00:31;99552.25;;;4.92;100.00
78317;BME280;67572;50.930;18.276;2024-03-06T16:03:34;99553.50;;;5.48;100.00
78317;BME280;67572;50.930;18.276;2024-03-06T16:06:39;99551.75;;;5.26;100.00
78317;BME280;67572;50.930;18.276;2024-03-06T16:09:43;99556.78;;;5.33;99.83
78317;BME280;67572;50.930;18.276;2024-03-06T16:12:47;99554.84;;;5.36;99.79
78317;BME280;67572;50.930;18.276;2024-03-06T16:15:50;99561.13;;;5.55;100.00
78317;BME280;67572;50.930;18.276;2024-03-06T16:18:54;99557.88;;;5.49;99.83
78317;BME280;67572;50.930;18.276;2024-03-06T16:22:00;99562.13;;;5.09;99.41
78317;BME280;67572;50.930;18.276;2024-03-06T16:25:04;99568.72;;;5.41;100.00